sensor_id;sensor_type;location;lat;lon;timestamp;temperature;humidity
46055;DHT22;31788;6.954;-71.872;2022-10-04T00:01:45;29.20;99.90
46055;DHT22;31788;6.954;-71.872;2022-10-04T00:09:57;29.20;99.90
46055;DHT22;31788;6.954;-71.872;2022-10-04T00:15:01;29.10;99.90
46055;DHT22;31788;6.954;-71.872;2022-10-04T00:17:30;29.10;99.90
46055;DHT22;31788;6.954;-71.872;2022-10-04T00:20:02;29.00;99.90
46055;DHT22;31788;6.954;-71.872;2022-10-04T00:22:31;28.90;99.90
46055;DHT22;31788;6.954;-71.872;2022-10-04T00:27:37;28.90;99.90
46055;DHT22;31788;6.954;-71.872;2022-10-04T00:32:36;28.80;99.90
46055;DHT22;31788;6.954;-71.872;2022-10-04T00:37:57;28.80;99.90
46055;DHT22;31788;6.954;-71.872;2022-10-04T00:40:38;28.70;99.90
46055;DHT22;31788;6.954;-71.872;2022-10-04T00:43:25;28.80;99.90
46055;DHT22;31788;6.954;-71.872;2022-10-04T00:46:18;28.80;99.90
46055;DHT22;31788;6.954;-71.872;2022-10-04T00:48:51;28.80;99.90
46055;DHT22;31788;6.954;-71.872;2022-10-04T00:51:24;28.70;99.90
46055;DHT22;31788;6.954;-71.872;2022-10-04T00:54:13;28.70;99.90
46055;DHT22;31788;6.954;-71.872;2022-10-04T01:02:03;28.50;99.90
46055;DHT22;31788;6.954;-71.872;2022-10-04T01:04:42;28.50;99.90
46055;DHT22;31788;6.954;-71.872;2022-10-04T01:07:14;28.50;99.90
46055;DHT22;31788;6.954;-71.872;2022-10-04T01:10:06;28.40;99.90
46055;DHT22;31788;6.954;-71.872;2022-10-04T01:18:11;28.50;99.90
46055;DHT22;31788;6.954;-71.872;2022-10-04T01:28:57;28.60;99.90
46055;DHT22;31788;6.954;-71.872;2022-10-04T01:31:28;28.60;99.90
46055;DHT22;31788;6.954;-71.872;2022-10-04T01:33:56;28.50;99.90
46055;DHT22;31788;6.954;-71.872;2022-10-04T01:36:23;28.50;99.90
46055;DHT22;31788;6.954;-71.872;2022-10-04T01:38:49;28.50;99.90
46055;DHT22;31788;6.954;-71.872;2022-10-04T01:41:20;28.50;99.90
46055;DHT22;31788;6.954;-71.872;2022-10-04T01:43:59;28.50;99.90
46055;DHT22;31788;6.954;-71.872;2022-10-04T01:46:30;28.50;99.90
46055;DHT22;31788;6.954;-71.872;2022-10-04T01:49:02;28.50;99.90
46055;DHT22;31788;6.954;-71.872;2022-10-04T01:51:51;28.40;99.90
46055;DHT22;31788;6.954;-71.872;2022-10-04T01:54:41;28.30;99.90
46055;DHT22;31788;6.954;-71.872;2022-10-04T01:57:34;28.30;99.90
46055;DHT22;31788;6.954;-71.872;2022-10-04T02:00:08;28.30;99.90
46055;DHT22;31788;6.954;-71.872;2022-10-04T02:05:33;28.10;99.90
46055;DHT22;31788;6.954;-71.872;2022-10-04T02:08:10;28.10;99.90
46055;DHT22;31788;6.954;-71.872;2022-10-04T02:10:44;28.00;99.90
46055;DHT22;31788;6.954;-71.872;2022-10-04T02:13:14;28.00;99.90
46055;DHT22;31788;6.954;-71.872;2022-10-04T02:15:44;27.90;99.90
46055;DHT22;31788;6.954;-71.872;2022-10-04T02:18:14;27.90;99.90
46055;DHT22;31788;6.954;-71.872;2022-10-04T02:20:42;27.90;99.90
46055;DHT22;31788;6.954;-71.872;2022-10-04T02:23:11;27.90;99.90
46055;DHT22;31788;6.954;-71.872;2022-10-04T02:25:38;27.90;99.90
46055;DHT22;31788;6.954;-71.872;2022-10-04T02:28:09;27.90;99.90
46055;DHT22;31788;6.954;-71.872;2022-10-04T02:30:37;27.90;99.90
46055;DHT22;31788;6.954;-71.872;2022-10-04T02:33:06;27.90;99.90
46055;DHT22;31788;6.954;-71.872;2022-10-04T02:35:44;27.90;99.90
46055;DHT22;31788;6.954;-71.872;2022-10-04T02:38:20;27.90;99.90
46055;DHT22;31788;6.954;-71.872;2022-10-04T02:47:03;27.80;99.90
46055;DHT22;31788;6.954;-71.872;2022-10-04T02:49:58;27.70;99.90
46055;DHT22;31788;6.954;-71.872;2022-10-04T02:52:43;27.70;99.90
46055;DHT22;31788;6.954;-71.872;2022-10-04T02:55:23;27.70;99.90
46055;DHT22;31788;6.954;-71.872;2022-10-04T02:57:53;27.70;99.90
46055;DHT22;31788;6.954;-71.872;2022-10-04T03:00:30;27.70;99.90
46055;DHT22;31788;6.954;-71.872;2022-10-04T03:03:20;27.70;99.90
46055;DHT22;31788;6.954;-71.872;2022-10-04T03:06:05;27.70;99.90
46055;DHT22;31788;6.954;-71.872;2022-10-04T03:11:11;27.70;99.90
46055;DHT22;31788;6.954;-71.872;2022-10-04T03:13:42;27.70;99.90
46055;DHT22;31788;6.954;-71.872;2022-10-04T03:16:10;27.60;99.90
46055;DHT22;31788;6.954;-71.872;2022-10-04T03:18:38;27.50;99.90
46055;DHT22;31788;6.954;-71.872;2022-10-04T03:21:07;27.50;99.90
46055;DHT22;31788;6.954;-71.872;2022-10-04T03:23:35;27.50;99.90
46055;DHT22;31788;6.954;-71.872;2022-10-04T03:28:32;27.40;99.90
46055;DHT22;31788;6.954;-71.872;2022-10-04T03:30:59;27.30;99.90
46055;DHT22;31788;6.954;-71.872;2022-10-04T03:33:26;27.20;99.90
46055;DHT22;31788;6.954;-71.872;2022-10-04T03:35:55;27.20;99.90
46055;DHT22;31788;6.954;-71.872;2022-10-04T03:38:23;27.10;99.90
46055;DHT22;31788;6.954;-71.872;2022-10-04T03:40:55;27.10;99.90
46055;DHT22;31788;6.954;-71.872;2022-10-04T03:43:26;27.10;99.90
46055;DHT22;31788;6.954;-71.872;2022-10-04T03:45:54;27.10;99.90
46055;DHT22;31788;6.954;-71.872;2022-10-04T03:48:32;27.20;99.90
46055;DHT22;31788;6.954;-71.872;2022-10-04T03:50:59;27.20;99.90
46055;DHT22;31788;6.954;-71.872;2022-10-04T03:53:31;27.20;99.90
46055;DHT22;31788;6.954;-71.872;2022-10-04T03:56:01;27.20;99.90
46055;DHT22;31788;6.954;-71.872;2022-10-04T03:58:30;27.20;99.90
46055;DHT22;31788;6.954;-71.872;2022-10-04T04:01:02;27.20;99.90
46055;DHT22;31788;6.954;-71.872;2022-10-04T04:03:39;27.20;99.90
46055;DHT22;31788;6.954;-71.872;2022-10-04T04:06:14;27.10;99.90
46055;DHT22;31788;6.954;-71.872;2022-10-04T04:08:44;27.10;99.90
46055;DHT22;31788;6.954;-71.872;2022-10-04T04:11:22;27.00;99.90
46055;DHT22;31788;6.954;-71.872;2022-10-04T04:14:23;27.00;99.90
46055;DHT22;31788;6.954;-71.872;2022-10-04T04:16:51;26.90;99.90
46055;DHT22;31788;6.954;-71.872;2022-10-04T04:19:28;26.80;99.90
46055;DHT22;31788;6.954;-71.872;2022-10-04T04:21:55;26.80;99.90
46055;DHT22;31788;6.954;-71.872;2022-10-04T04:24:29;26.80;99.90
46055;DHT22;31788;6.954;-71.872;2022-10-04T04:27:01;26.70;99.90
46055;DHT22;31788;6.954;-71.872;2022-10-04T04:29:35;26.70;99.90
46055;DHT22;31788;6.954;-71.872;2022-10-04T04:32:14;26.70;99.90
46055;DHT22;31788;6.954;-71.872;2022-10-04T04:35:02;26.60;99.90
46055;DHT22;31788;6.954;-71.872;2022-10-04T04:37:36;26.60;99.90
46055;DHT22;31788;6.954;-71.872;2022-10-04T04:40:24;26.70;99.90
46055;DHT22;31788;6.954;-71.872;2022-10-04T04:42:51;26.60;99.90
46055;DHT22;31788;6.954;-71.872;2022-10-04T04:45:19;26.60;99.90
46055;DHT22;31788;6.954;-71.872;2022-10-04T04:47:50;26.60;99.90
46055;DHT22;31788;6.954;-71.872;2022-10-04T04:50:19;26.60;99.90
46055;DHT22;31788;6.954;-71.872;2022-10-04T04:52:56;26.50;99.90
46055;DHT22;31788;6.954;-71.872;2022-10-04T04:55:26;26.60;99.90
46055;DHT22;31788;6.954;-71.872;2022-10-04T04:57:56;26.50;99.90
46055;DHT22;31788;6.954;-71.872;2022-10-04T05:00:30;26.60;99.90
46055;DHT22;31788;6.954;-71.872;2022-10-04T05:03:02;26.60;99.90
46055;DHT22;31788;6.954;-71.872;2022-10-04T05:05:35;26.50;99.90
46055;DHT22;31788;6.954;-71.872;2022-10-04T05:08:21;26.50;99.90
46055;DHT22;31788;6.954;-71.872;2022-10-04T05:13:36;26.40;99.90
46055;DHT22;31788;6.954;-71.872;2022-10-04T05:16:11;26.30;99.90
46055;DHT22;31788;6.954;-71.872;2022-10-04T05:18:38;26.30;99.90
46055;DHT22;31788;6.954;-71.872;2022-10-04T05:21:23;26.30;99.90
46055;DHT22;31788;6.954;-71.872;2022-10-04T05:23:51;26.30;99.90
46055;DHT22;31788;6.954;-71.872;2022-10-04T05:26:26;26.30;99.90
46055;DHT22;31788;6.954;-71.872;2022-10-04T05:28:58;26.30;99.90
46055;DHT22;31788;6.954;-71.872;2022-10-04T05:31:27;26.30;99.90
46055;DHT22;31788;6.954;-71.872;2022-10-04T05:33:59;26.30;99.90
46055;DHT22;31788;6.954;-71.872;2022-10-04T05:39:28;26.30;99.90
46055;DHT22;31788;6.954;-71.872;2022-10-04T05:44:30;26.30;99.90
46055;DHT22;31788;6.954;-71.872;2022-10-04T05:47:01;26.20;99.90
46055;DHT22;31788;6.954;-71.872;2022-10-04T05:49:35;26.10;99.90
46055;DHT22;31788;6.954;-71.872;2022-10-04T05:52:15;26.10;99.90
46055;DHT22;31788;6.954;-71.872;2022-10-04T05:55:28;26.10;99.90
46055;DHT22;31788;6.954;-71.872;2022-10-04T05:58:29;26.10;99.90
46055;DHT22;31788;6.954;-71.872;2022-10-04T06:07:42;26.10;99.90
46055;DHT22;31788;6.954;-71.872;2022-10-04T06:13:21;26.20;99.90
46055;DHT22;31788;6.954;-71.872;2022-10-04T06:16:35;26.10;99.90
46055;DHT22;31788;6.954;-71.872;2022-10-04T06:21:38;26.00;99.90
46055;DHT22;31788;6.954;-71.872;2022-10-04T06:24:16;26.10;99.90
46055;DHT22;31788;6.954;-71.872;2022-10-04T06:26:49;26.10;99.90
46055;DHT22;31788;6.954;-71.872;2022-10-04T06:29:20;26.20;99.90
46055;DHT22;31788;6.954;-71.872;2022-10-04T06:38:02;26.20;99.90
46055;DHT22;31788;6.954;-71.872;2022-10-04T07:02:27;25.90;99.90
46055;DHT22;31788;6.954;-71.872;2022-10-04T07:08:08;25.90;99.90
46055;DHT22;31788;6.954;-71.872;2022-10-04T07:10:52;25.80;99.90
46055;DHT22;31788;6.954;-71.872;2022-10-04T07:13:29;25.80;99.90
46055;DHT22;31788;6.954;-71.872;2022-10-04T07:18:59;25.80;99.90
46055;DHT22;31788;6.954;-71.872;2022-10-04T07:21:26;25.80;99.90
46055;DHT22;31788;6.954;-71.872;2022-10-04T07:23:59;25.80;99.90
46055;DHT22;31788;6.954;-71.872;2022-10-04T07:26:43;25.80;99.90
46055;DHT22;31788;6.954;-71.872;2022-10-04T07:29:21;25.80;99.90
46055;DHT22;31788;6.954;-71.872;2022-10-04T07:37:21;25.70;99.90
46055;DHT22;31788;6.954;-71.872;2022-10-04T07:40:01;25.70;99.90
46055;DHT22;31788;6.954;-71.872;2022-10-04T07:42:34;25.70;99.90
46055;DHT22;31788;6.954;-71.872;2022-10-04T07:45:20;25.70;99.90
46055;DHT22;31788;6.954;-71.872;2022-10-04T07:47:48;25.70;99.90
46055;DHT22;31788;6.954;-71.872;2022-10-04T07:50:27;25.80;99.90
46055;DHT22;31788;6.954;-71.872;2022-10-04T07:58:48;25.90;99.90
46055;DHT22;31788;6.954;-71.872;2022-10-04T08:01:39;25.90;99.90
46055;DHT22;31788;6.954;-71.872;2022-10-04T08:07:01;25.90;99.90
46055;DHT22;31788;6.954;-71.872;2022-10-04T08:28:23;25.70;99.90
46055;DHT22;31788;6.954;-71.872;2022-10-04T08:34:09;25.60;99.90
46055;DHT22;31788;6.954;-71.872;2022-10-04T08:39:45;25.60;99.90
46055;DHT22;31788;6.954;-71.872;2022-10-04T08:55:54;25.70;99.90
46055;DHT22;31788;6.954;-71.872;2022-10-04T09:01:16;25.60;99.90
46055;DHT22;31788;6.954;-71.872;2022-10-04T09:09:54;25.60;99.90
46055;DHT22;31788;6.954;-71.872;2022-10-04T09:12:49;25.60;99.90
46055;DHT22;31788;6.954;-71.872;2022-10-04T09:15:21;25.60;99.90
46055;DHT22;31788;6.954;-71.872;2022-10-04T09:18:01;25.50;99.90
46055;DHT22;31788;6.954;-71.872;2022-10-04T09:21:21;25.50;99.90
46055;DHT22;31788;6.954;-71.872;2022-10-04T09:29:26;25.50;99.90
46055;DHT22;31788;6.954;-71.872;2022-10-04T09:32:18;25.40;99.90
46055;DHT22;31788;6.954;-71.872;2022-10-04T09:59:59;25.30;99.90
46055;DHT22;31788;6.954;-71.872;2022-10-04T10:16:52;25.30;99.90
46055;DHT22;31788;6.954;-71.872;2022-10-04T10:25:25;25.10;99.90
46055;DHT22;31788;6.954;-71.872;2022-10-04T10:30:37;25.20;99.90
46055;DHT22;31788;6.954;-71.872;2022-10-04T10:33:36;25.20;99.90
46055;DHT22;31788;6.954;-71.872;2022-10-04T10:58:51;25.20;99.90
46055;DHT22;31788;6.954;-71.872;2022-10-04T11:04:37;25.30;99.90
46055;DHT22;31788;6.954;-71.872;2022-10-04T11:07:45;25.30;99.90
46055;DHT22;31788;6.954;-71.872;2022-10-04T11:33:11;26.00;99.90
46055;DHT22;31788;6.954;-71.872;2022-10-04T11:36:01;26.20;99.90
46055;DHT22;31788;6.954;-71.872;2022-10-04T11:39:26;26.30;99.90
46055;DHT22;31788;6.954;-71.872;2022-10-04T11:41:46;26.30;99.90
46055;DHT22;31788;6.954;-71.872;2022-10-04T11:50:12;26.60;99.90
46055;DHT22;31788;6.954;-71.872;2022-10-04T12:01:48;27.20;99.40
46055;DHT22;31788;6.954;-71.872;2022-10-04T12:07:24;27.50;99.20
46055;DHT22;31788;6.954;-71.872;2022-10-04T12:10:41;27.70;98.90
46055;DHT22;31788;6.954;-71.872;2022-10-04T12:12:53;27.80;98.70
46055;DHT22;31788;6.954;-71.872;2022-10-04T12:15:35;27.90;98.80
46055;DHT22;31788;6.954;-71.872;2022-10-04T12:18:13;27.90;98.40
46055;DHT22;31788;6.954;-71.872;2022-10-04T12:23:50;28.10;98.20
46055;DHT22;31788;6.954;-71.872;2022-10-04T12:32:22;28.30;97.70
46055;DHT22;31788;6.954;-71.872;2022-10-04T12:40:20;28.50;97.60
46055;DHT22;31788;6.954;-71.872;2022-10-04T13:00:20;28.80;97.10
46055;DHT22;31788;6.954;-71.872;2022-10-04T13:06:19;28.80;97.10
46055;DHT22;31788;6.954;-71.872;2022-10-04T13:08:59;28.80;97.10
46055;DHT22;31788;6.954;-71.872;2022-10-04T13:24:00;28.80;96.90
46055;DHT22;31788;6.954;-71.872;2022-10-04T13:29:27;28.80;97.00
46055;DHT22;31788;6.954;-71.872;2022-10-04T13:37:31;28.80;97.10
46055;DHT22;31788;6.954;-71.872;2022-10-04T13:40:23;28.80;97.20
46055;DHT22;31788;6.954;-71.872;2022-10-04T13:45:40;28.80;97.30
46055;DHT22;31788;6.954;-71.872;2022-10-04T13:54:45;28.90;97.30
46055;DHT22;31788;6.954;-71.872;2022-10-04T13:57:10;28.90;97.30
46055;DHT22;31788;6.954;-71.872;2022-10-04T14:08:11;28.80;97.20
46055;DHT22;31788;6.954;-71.872;2022-10-04T14:16:17;28.90;97.20
46055;DHT22;31788;6.954;-71.872;2022-10-04T14:19:23;28.90;97.40
46055;DHT22;31788;6.954;-71.872;2022-10-04T14:39:06;29.10;97.60
46055;DHT22;31788;6.954;-71.872;2022-10-04T14:44:35;29.20;97.80
46055;DHT22;31788;6.954;-71.872;2022-10-04T14:50:20;29.20;98.10
46055;DHT22;31788;6.954;-71.872;2022-10-04T15:02:10;29.30;97.90
46055;DHT22;31788;6.954;-71.872;2022-10-04T15:07:51;29.30;98.00
46055;DHT22;31788;6.954;-71.872;2022-10-04T15:10:35;29.40;98.00
46055;DHT22;31788;6.954;-71.872;2022-10-04T15:16:35;29.40;98.00
46055;DHT22;31788;6.954;-71.872;2022-10-04T15:19:42;29.40;98.00
46055;DHT22;31788;6.954;-71.872;2022-10-04T15:22:24;29.40;98.00
46055;DHT22;31788;6.954;-71.872;2022-10-04T15:24:53;29.50;98.10
46055;DHT22;31788;6.954;-71.872;2022-10-04T15:38:54;29.60;98.10
46055;DHT22;31788;6.954;-71.872;2022-10-04T16:04:30;29.80;97.90
46055;DHT22;31788;6.954;-71.872;2022-10-04T16:09:41;29.90;97.40
46055;DHT22;31788;6.954;-71.872;2022-10-04T16:12:28;29.90;97.70
46055;DHT22;31788;6.954;-71.872;2022-10-04T16:15:45;29.90;97.70
46055;DHT22;31788;6.954;-71.872;2022-10-04T16:20:35;30.00;97.30
46055;DHT22;31788;6.954;-71.872;2022-10-04T16:25:51;30.10;96.90
46055;DHT22;31788;6.954;-71.872;2022-10-04T16:39:59;30.10;96.80
46055;DHT22;31788;6.954;-71.872;2022-10-04T16:42:46;30.10;97.00
46055;DHT22;31788;6.954;-71.872;2022-10-04T16:57:26;30.30;96.90
46055;DHT22;31788;6.954;-71.872;2022-10-04T17:02:28;30.30;96.70
46055;DHT22;31788;6.954;-71.872;2022-10-04T17:10:15;30.30;96.60
46055;DHT22;31788;6.954;-71.872;2022-10-04T17:12:48;30.30;96.50
46055;DHT22;31788;6.954;-71.872;2022-10-04T17:23:02;30.40;96.10
46055;DHT22;31788;6.954;-71.872;2022-10-04T17:25:46;30.50;96.00
46055;DHT22;31788;6.954;-71.872;2022-10-04T17:28:49;30.60;95.80
46055;DHT22;31788;6.954;-71.872;2022-10-04T17:36:53;30.70;95.40
46055;DHT22;31788;6.954;-71.872;2022-10-04T17:42:47;30.70;94.60
46055;DHT22;31788;6.954;-71.872;2022-10-04T17:45:49;30.70;94.80
46055;DHT22;31788;6.954;-71.872;2022-10-04T17:48:54;30.80;95.10
46055;DHT22;31788;6.954;-71.872;2022-10-04T17:54:22;31.00;95.30
46055;DHT22;31788;6.954;-71.872;2022-10-04T17:57:27;31.00;95.30
46055;DHT22;31788;6.954;-71.872;2022-10-04T18:00:09;30.90;95.60
46055;DHT22;31788;6.954;-71.872;2022-10-04T18:05:23;31.00;95.80
46055;DHT22;31788;6.954;-71.872;2022-10-04T18:08:09;31.00;95.80
46055;DHT22;31788;6.954;-71.872;2022-10-04T18:10:51;31.00;95.70
46055;DHT22;31788;6.954;-71.872;2022-10-04T18:13:45;31.00;95.90
46055;DHT22;31788;6.954;-71.872;2022-10-04T18:16:29;31.10;95.70
46055;DHT22;31788;6.954;-71.872;2022-10-04T18:22:12;31.10;95.70
46055;DHT22;31788;6.954;-71.872;2022-10-04T18:24:42;31.20;95.60
46055;DHT22;31788;6.954;-71.872;2022-10-04T18:27:16;31.10;95.60
46055;DHT22;31788;6.954;-71.872;2022-10-04T18:32:35;31.30;95.90
46055;DHT22;31788;6.954;-71.872;2022-10-04T18:35:30;31.30;95.40
46055;DHT22;31788;6.954;-71.872;2022-10-04T18:38:21;31.30;95.20
46055;DHT22;31788;6.954;-71.872;2022-10-04T18:41:00;31.30;95.30
46055;DHT22;31788;6.954;-71.872;2022-10-04T18:43:49;31.40;94.90
46055;DHT22;31788;6.954;-71.872;2022-10-04T18:46:18;31.40;95.20
46055;DHT22;31788;6.954;-71.872;2022-10-04T18:48:57;31.30;95.20
46055;DHT22;31788;6.954;-71.872;2022-10-04T18:51:38;31.40;95.30
46055;DHT22;31788;6.954;-71.872;2022-10-04T18:54:16;31.40;94.70
46055;DHT22;31788;6.954;-71.872;2022-10-04T18:57:03;31.40;94.20
46055;DHT22;31788;6.954;-71.872;2022-10-04T19:02:55;31.40;95.00
46055;DHT22;31788;6.954;-71.872;2022-10-04T19:05:42;31.20;95.60
46055;DHT22;31788;6.954;-71.872;2022-10-04T19:08:44;31.10;96.10
46055;DHT22;31788;6.954;-71.872;2022-10-04T19:11:54;31.00;96.30
46055;DHT22;31788;6.954;-71.872;2022-10-04T19:22:59;30.60;96.70
46055;DHT22;31788;6.954;-71.872;2022-10-04T19:25:35;30.60;96.70
46055;DHT22;31788;6.954;-71.872;2022-10-04T19:28:20;30.50;96.80
46055;DHT22;31788;6.954;-71.872;2022-10-04T19:31:10;30.40;97.00
46055;DHT22;31788;6.954;-71.872;2022-10-04T19:33:46;30.40;97.00
46055;DHT22;31788;6.954;-71.872;2022-10-04T19:39:09;30.40;97.30
46055;DHT22;31788;6.954;-71.872;2022-10-04T19:41:56;30.50;97.20
46055;DHT22;31788;6.954;-71.872;2022-10-04T19:47:32;30.50;96.90
46055;DHT22;31788;6.954;-71.872;2022-10-04T19:53:04;30.50;96.60
46055;DHT22;31788;6.954;-71.872;2022-10-04T20:00:50;30.50;96.30
46055;DHT22;31788;6.954;-71.872;2022-10-04T20:03:16;30.60;95.90
46055;DHT22;31788;6.954;-71.872;2022-10-04T20:05:51;30.60;96.20
46055;DHT22;31788;6.954;-71.872;2022-10-04T20:08:54;30.60;95.60
46055;DHT22;31788;6.954;-71.872;2022-10-04T20:22:24;30.80;95.60
46055;DHT22;31788;6.954;-71.872;2022-10-04T20:35:04;30.80;95.60
46055;DHT22;31788;6.954;-71.872;2022-10-04T20:45:45;30.90;95.40
46055;DHT22;31788;6.954;-71.872;2022-10-04T20:48:32;30.90;95.00
46055;DHT22;31788;6.954;-71.872;2022-10-04T20:51:07;30.90;94.90
46055;DHT22;31788;6.954;-71.872;2022-10-04T20:53:41;30.90;95.40
46055;DHT22;31788;6.954;-71.872;2022-10-04T20:56:30;30.90;95.10
46055;DHT22;31788;6.954;-71.872;2022-10-04T20:59:02;30.90;95.50
46055;DHT22;31788;6.954;-71.872;2022-10-04T21:01:33;30.90;95.20
46055;DHT22;31788;6.954;-71.872;2022-10-04T21:04:22;30.90;95.20
46055;DHT22;31788;6.954;-71.872;2022-10-04T21:06:58;30.90;95.50
46055;DHT22;31788;6.954;-71.872;2022-10-04T21:09:26;30.90;95.00
46055;DHT22;31788;6.954;-71.872;2022-10-04T21:11:55;30.90;95.00
46055;DHT22;31788;6.954;-71.872;2022-10-04T21:14:29;31.00;94.90
46055;DHT22;31788;6.954;-71.872;2022-10-04T21:17:00;31.00;95.00
46055;DHT22;31788;6.954;-71.872;2022-10-04T21:22:04;31.00;95.00
46055;DHT22;31788;6.954;-71.872;2022-10-04T21:24:38;31.00;94.90
46055;DHT22;31788;6.954;-71.872;2022-10-04T21:27:07;30.90;94.90
46055;DHT22;31788;6.954;-71.872;2022-10-04T21:29:36;30.90;95.10
46055;DHT22;31788;6.954;-71.872;2022-10-04T21:32:03;31.00;95.20
46055;DHT22;31788;6.954;-71.872;2022-10-04T21:34:30;30.90;95.40
46055;DHT22;31788;6.954;-71.872;2022-10-04T21:36:57;31.00;95.40
46055;DHT22;31788;6.954;-71.872;2022-10-04T21:39:24;30.90;95.10
46055;DHT22;31788;6.954;-71.872;2022-10-04T21:41:50;30.80;95.30
46055;DHT22;31788;6.954;-71.872;2022-10-04T21:44:20;30.80;95.40
46055;DHT22;31788;6.954;-71.872;2022-10-04T21:46:46;30.70;95.50
46055;DHT22;31788;6.954;-71.872;2022-10-04T21:49:13;30.70;95.50
46055;DHT22;31788;6.954;-71.872;2022-10-04T21:51:39;30.70;95.40
46055;DHT22;31788;6.954;-71.872;2022-10-04T21:54:06;30.70;95.40
46055;DHT22;31788;6.954;-71.872;2022-10-04T21:56:33;30.70;95.60
46055;DHT22;31788;6.954;-71.872;2022-10-04T21:58:59;30.70;95.80
46055;DHT22;31788;6.954;-71.872;2022-10-04T22:01:26;30.70;96.00
46055;DHT22;31788;6.954;-71.872;2022-10-04T22:03:52;30.70;96.30
46055;DHT22;31788;6.954;-71.872;2022-10-04T22:06:19;30.60;96.30
46055;DHT22;31788;6.954;-71.872;2022-10-04T22:08:46;30.60;96.60
46055;DHT22;31788;6.954;-71.872;2022-10-04T22:11:15;30.60;96.30
46055;DHT22;31788;6.954;-71.872;2022-10-04T22:13:41;30.60;96.20
46055;DHT22;31788;6.954;-71.872;2022-10-04T22:16:09;30.50;96.20
46055;DHT22;31788;6.954;-71.872;2022-10-04T22:18:36;30.50;96.30
46055;DHT22;31788;6.954;-71.872;2022-10-04T22:21:03;30.50;96.40
46055;DHT22;31788;6.954;-71.872;2022-10-04T22:23:36;30.50;96.50
46055;DHT22;31788;6.954;-71.872;2022-10-04T22:26:19;30.50;96.40
46055;DHT22;31788;6.954;-71.872;2022-10-04T22:28:52;30.40;96.40
46055;DHT22;31788;6.954;-71.872;2022-10-04T22:31:27;30.50;97.50
46055;DHT22;31788;6.954;-71.872;2022-10-04T22:33:54;30.40;97.90
46055;DHT22;31788;6.954;-71.872;2022-10-04T22:36:42;30.40;98.30
46055;DHT22;31788;6.954;-71.872;2022-10-04T22:44:27;30.30;98.30
46055;DHT22;31788;6.954;-71.872;2022-10-04T22:46:56;30.20;98.00
46055;DHT22;31788;6.954;-71.872;2022-10-04T22:49:26;30.20;97.70
46055;DHT22;31788;6.954;-71.872;2022-10-04T22:51:54;30.20;97.40
46055;DHT22;31788;6.954;-71.872;2022-10-04T22:54:42;30.20;97.40
46055;DHT22;31788;6.954;-71.872;2022-10-04T22:57:10;30.20;97.50
46055;DHT22;31788;6.954;-71.872;2022-10-04T22:59:41;30.20;97.40
46055;DHT22;31788;6.954;-71.872;2022-10-04T23:02:20;30.10;97.30
46055;DHT22;31788;6.954;-71.872;2022-10-04T23:05:13;30.00;97.50
46055;DHT22;31788;6.954;-71.872;2022-10-04T23:07:42;30.00;97.70
46055;DHT22;31788;6.954;-71.872;2022-10-04T23:10:10;29.90;97.90
46055;DHT22;31788;6.954;-71.872;2022-10-04T23:12:37;29.90;98.10
46055;DHT22;31788;6.954;-71.872;2022-10-04T23:15:06;29.90;98.00
46055;DHT22;31788;6.954;-71.872;2022-10-04T23:17:35;29.90;98.20
46055;DHT22;31788;6.954;-71.872;2022-10-04T23:20:16;29.80;98.20
46055;DHT22;31788;6.954;-71.872;2022-10-04T23:22:44;29.80;98.40
46055;DHT22;31788;6.954;-71.872;2022-10-04T23:25:20;29.80;98.50
46055;DHT22;31788;6.954;-71.872;2022-10-04T23:27:47;29.70;98.60
46055;DHT22;31788;6.954;-71.872;2022-10-04T23:30:17;29.70;98.70
46055;DHT22;31788;6.954;-71.872;2022-10-04T23:32:47;29.60;98.80
46055;DHT22;31788;6.954;-71.872;2022-10-04T23:37:44;29.50;98.80
46055;DHT22;31788;6.954;-71.872;2022-10-04T23:40:11;29.50;99.00
46055;DHT22;31788;6.954;-71.872;2022-10-04T23:42:40;29.50;99.00
46055;DHT22;31788;6.954;-71.872;2022-10-04T23:45:19;29.50;99.00
46055;DHT22;31788;6.954;-71.872;2022-10-04T23:47:52;29.50;99.30
46055;DHT22;31788;6.954;-71.872;2022-10-04T23:50:33;29.40;99.20
46055;DHT22;31788;6.954;-71.872;2022-10-04T23:53:04;29.30;99.00
46055;DHT22;31788;6.954;-71.872;2022-10-04T23:55:35;29.30;99.20
46055;DHT22;31788;6.954;-71.872;2022-10-04T23:58:14;29.30;99.10
